sensor_id;sensor_type;location;lat;lon;timestamp;P1;durP1;ratioP1;P2;durP2;ratioP2
64313;SDS011;50650;48.180;11.524;2023-04-28T00:00:55;4.88;;;2.38;;
64313;SDS011;50650;48.180;11.524;2023-04-28T00:03:21;4.90;;;2.05;;
64313;SDS011;50650;48.180;11.524;2023-04-28T00:05:48;3.13;;;1.92;;
64313;SDS011;50650;48.180;11.524;2023-04-28T00:08:14;4.80;;;1.83;;
64313;SDS011;50650;48.180;11.524;2023-04-28T00:10:41;5.13;;;2.25;;
64313;SDS011;50650;48.180;11.524;2023-04-28T00:13:07;3.08;;;2.00;;
64313;SDS011;50650;48.180;11.524;2023-04-28T00:15:35;4.13;;;1.90;;
64313;SDS011;50650;48.180;11.524;2023-04-28T00:18:01;4.57;;;1.67;;
64313;SDS011;50650;48.180;11.524;2023-04-28T00:20:27;2.85;;;1.30;;
64313;SDS011;50650;48.180;11.524;2023-04-28T00:22:54;2.60;;;1.60;;
64313;SDS011;50650;48.180;11.524;2023-04-28T00:25:20;3.67;;;1.63;;
64313;SDS011;50650;48.180;11.524;2023-04-28T00:27:47;2.72;;;1.60;;
64313;SDS011;50650;48.180;11.524;2023-04-28T00:30:14;1.73;;;1.40;;
64313;SDS011;50650;48.180;11.524;2023-04-28T00:32:42;2.00;;;1.45;;
64313;SDS011;50650;48.180;11.524;2023-04-28T00:35:08;2.47;;;1.30;;
64313;SDS011;50650;48.180;11.524;2023-04-28T00:37:35;2.45;;;1.40;;
64313;SDS011;50650;48.180;11.524;2023-04-28T00:40:02;1.73;;;1.27;;
64313;SDS011;50650;48.180;11.524;2023-04-28T00:42:28;1.75;;;1.42;;
64313;SDS011;50650;48.180;11.524;2023-04-28T00:44:55;3.78;;;1.17;;
64313;SDS011;50650;48.180;11.524;2023-04-28T00:47:21;1.88;;;1.30;;
64313;SDS011;50650;48.180;11.524;2023-04-28T00:49:49;2.22;;;1.30;;
64313;SDS011;50650;48.180;11.524;2023-04-28T00:52:17;3.38;;;1.40;;
64313;SDS011;50650;48.180;11.524;2023-04-28T00:54:43;2.85;;;1.15;;
64313;SDS011;50650;48.180;11.524;2023-04-28T00:57:11;1.98;;;1.30;;
64313;SDS011;50650;48.180;11.524;2023-04-28T00:59:38;2.72;;;1.45;;
64313;SDS011;50650;48.180;11.524;2023-04-28T01:02:04;2.03;;;1.20;;
64313;SDS011;50650;48.180;11.524;2023-04-28T01:04:31;1.98;;;1.20;;
64313;SDS011;50650;48.180;11.524;2023-04-28T01:06:59;3.88;;;1.17;;
64313;SDS011;50650;48.180;11.524;2023-04-28T01:09:26;3.58;;;1.40;;
64313;SDS011;50650;48.180;11.524;2023-04-28T01:11:53;2.40;;;1.20;;
64313;SDS011;50650;48.180;11.524;2023-04-28T01:14:19;4.05;;;1.30;;
64313;SDS011;50650;48.180;11.524;2023-04-28T01:16:46;4.45;;;1.20;;
64313;SDS011;50650;48.180;11.524;2023-04-28T01:19:14;2.78;;;1.50;;
64313;SDS011;50650;48.180;11.524;2023-04-28T01:21:47;1.67;;;1.10;;
64313;SDS011;50650;48.180;11.524;2023-04-28T01:24:15;1.95;;;1.33;;
64313;SDS011;50650;48.180;11.524;2023-04-28T01:26:41;1.70;;;1.02;;
64313;SDS011;50650;48.180;11.524;2023-04-28T01:29:08;4.70;;;1.38;;
64313;SDS011;50650;48.180;11.524;2023-04-28T01:31:34;4.13;;;1.48;;
64313;SDS011;50650;48.180;11.524;2023-04-28T01:34:01;3.67;;;1.33;;
64313;SDS011;50650;48.180;11.524;2023-04-28T01:36:27;1.70;;;1.02;;
64313;SDS011;50650;48.180;11.524;2023-04-28T01:38:55;2.90;;;1.27;;
64313;SDS011;50650;48.180;11.524;2023-04-28T01:41:23;6.45;;;1.40;;
64313;SDS011;50650;48.180;11.524;2023-04-28T01:43:50;2.03;;;1.15;;
64313;SDS011;50650;48.180;11.524;2023-04-28T01:46:16;4.93;;;1.55;;
64313;SDS011;50650;48.180;11.524;2023-04-28T01:48:43;2.33;;;1.40;;
64313;SDS011;50650;48.180;11.524;2023-04-28T01:51:09;2.85;;;1.30;;
64313;SDS011;50650;48.180;11.524;2023-04-28T01:53:35;1.88;;;1.10;;
64313;SDS011;50650;48.180;11.524;2023-04-28T01:56:02;4.20;;;1.45;;
64313;SDS011;50650;48.180;11.524;2023-04-28T01:58:30;2.35;;;1.50;;
64313;SDS011;50650;48.180;11.524;2023-04-28T02:00:56;2.67;;;1.60;;
64313;SDS011;50650;48.180;11.524;2023-04-28T02:03:23;2.25;;;1.38;;
64313;SDS011;50650;48.180;11.524;2023-04-28T02:05:50;3.97;;;1.40;;
64313;SDS011;50650;48.180;11.524;2023-04-28T02:08:16;5.75;;;1.60;;
64313;SDS011;50650;48.180;11.524;2023-04-28T02:10:43;2.95;;;1.35;;
64313;SDS011;50650;48.180;11.524;2023-04-28T02:13:10;3.13;;;1.42;;
64313;SDS011;50650;48.180;11.524;2023-04-28T02:15:39;2.00;;;1.30;;
64313;SDS011;50650;48.180;11.524;2023-04-28T02:18:06;2.05;;;1.20;;
64313;SDS011;50650;48.180;11.524;2023-04-28T02:20:32;1.83;;;1.35;;
64313;SDS011;50650;48.180;11.524;2023-04-28T02:22:59;2.42;;;1.50;;
64313;SDS011;50650;48.180;11.524;2023-04-28T02:25:25;1.65;;;1.20;;
64313;SDS011;50650;48.180;11.524;2023-04-28T02:27:51;2.00;;;1.20;;
64313;SDS011;50650;48.180;11.524;2023-04-28T02:30:18;1.92;;;0.85;;
64313;SDS011;50650;48.180;11.524;2023-04-28T02:32:46;2.28;;;1.20;;
64313;SDS011;50650;48.180;11.524;2023-04-28T02:35:13;3.30;;;1.45;;
64313;SDS011;50650;48.180;11.524;2023-04-28T02:37:39;2.08;;;1.05;;
64313;SDS011;50650;48.180;11.524;2023-04-28T02:40:06;2.60;;;1.30;;
64313;SDS011;50650;48.180;11.524;2023-04-28T02:42:33;2.58;;;1.23;;
64313;SDS011;50650;48.180;11.524;2023-04-28T02:45:00;2.63;;;1.40;;
64313;SDS011;50650;48.180;11.524;2023-04-28T02:47:26;4.60;;;1.58;;
64313;SDS011;50650;48.180;11.524;2023-04-28T02:49:54;1.90;;;1.20;;
64313;SDS011;50650;48.180;11.524;2023-04-28T02:52:20;1.70;;;1.40;;
64313;SDS011;50650;48.180;11.524;2023-04-28T02:54:46;2.10;;;1.48;;
64313;SDS011;50650;48.180;11.524;2023-04-28T02:57:18;3.65;;;1.38;;
64313;SDS011;50650;48.180;11.524;2023-04-28T02:59:44;1.48;;;1.20;;
64313;SDS011;50650;48.180;11.524;2023-04-28T03:02:11;4.65;;;1.30;;
64313;SDS011;50650;48.180;11.524;2023-04-28T03:04:37;2.05;;;1.20;;
64313;SDS011;50650;48.180;11.524;2023-04-28T03:07:05;2.72;;;1.00;;
64313;SDS011;50650;48.180;11.524;2023-04-28T03:09:31;3.08;;;1.40;;
64313;SDS011;50650;48.180;11.524;2023-04-28T03:11:58;2.42;;;1.10;;
64313;SDS011;50650;48.180;11.524;2023-04-28T03:14:24;2.67;;;1.10;;
64313;SDS011;50650;48.180;11.524;2023-04-28T03:16:51;1.38;;;1.13;;
64313;SDS011;50650;48.180;11.524;2023-04-28T03:19:17;3.55;;;1.35;;
64313;SDS011;50650;48.180;11.524;2023-04-28T03:21:44;3.35;;;1.30;;
64313;SDS011;50650;48.180;11.524;2023-04-28T03:24:13;2.30;;;1.48;;
64313;SDS011;50650;48.180;11.524;2023-04-28T03:26:39;2.35;;;1.30;;
64313;SDS011;50650;48.180;11.524;2023-04-28T03:29:06;2.10;;;1.33;;
64313;SDS011;50650;48.180;11.524;2023-04-28T03:31:32;1.65;;;1.13;;
64313;SDS011;50650;48.180;11.524;2023-04-28T03:33:58;3.85;;;1.33;;
64313;SDS011;50650;48.180;11.524;2023-04-28T03:36:25;3.00;;;1.38;;
64313;SDS011;50650;48.180;11.524;2023-04-28T03:38:52;3.22;;;1.30;;
64313;SDS011;50650;48.180;11.524;2023-04-28T03:41:20;3.63;;;1.50;;
64313;SDS011;50650;48.180;11.524;2023-04-28T03:43:46;2.05;;;1.30;;
64313;SDS011;50650;48.180;11.524;2023-04-28T03:46:13;1.25;;;0.93;;
64313;SDS011;50650;48.180;11.524;2023-04-28T03:48:39;2.58;;;1.10;;
64313;SDS011;50650;48.180;11.524;2023-04-28T03:51:06;2.55;;;1.30;;
64313;SDS011;50650;48.180;11.524;2023-04-28T03:53:32;1.45;;;1.00;;
64313;SDS011;50650;48.180;11.524;2023-04-28T03:55:59;1.83;;;1.30;;
64313;SDS011;50650;48.180;11.524;2023-04-28T03:58:26;2.63;;;1.00;;
64313;SDS011;50650;48.180;11.524;2023-04-28T04:00:53;1.80;;;1.30;;
64313;SDS011;50650;48.180;11.524;2023-04-28T04:03:19;1.23;;;1.00;;
64313;SDS011;50650;48.180;11.524;2023-04-28T04:05:49;2.03;;;1.08;;
64313;SDS011;50650;48.180;11.524;2023-04-28T04:08:16;3.15;;;1.10;;
64313;SDS011;50650;48.180;11.524;2023-04-28T04:10:42;1.75;;;1.30;;
64313;SDS011;50650;48.180;11.524;2023-04-28T04:13:09;3.35;;;1.42;;
64313;SDS011;50650;48.180;11.524;2023-04-28T04:15:36;2.78;;;1.55;;
64313;SDS011;50650;48.180;11.524;2023-04-28T04:18:03;2.38;;;1.50;;
64313;SDS011;50650;48.180;11.524;2023-04-28T04:20:30;3.28;;;1.60;;
64313;SDS011;50650;48.180;11.524;2023-04-28T04:22:56;4.22;;;1.80;;
64313;SDS011;50650;48.180;11.524;2023-04-28T04:25:22;3.28;;;1.70;;
64313;SDS011;50650;48.180;11.524;2023-04-28T04:27:49;2.38;;;1.70;;
64313;SDS011;50650;48.180;11.524;2023-04-28T04:30:15;5.22;;;1.98;;
64313;SDS011;50650;48.180;11.524;2023-04-28T04:32:43;3.20;;;1.70;;
64313;SDS011;50650;48.180;11.524;2023-04-28T04:35:09;4.35;;;1.70;;
64313;SDS011;50650;48.180;11.524;2023-04-28T04:37:36;3.33;;;2.13;;
64313;SDS011;50650;48.180;11.524;2023-04-28T04:40:02;4.25;;;1.73;;
64313;SDS011;50650;48.180;11.524;2023-04-28T04:42:29;2.65;;;1.70;;
64313;SDS011;50650;48.180;11.524;2023-04-28T04:44:56;4.30;;;1.60;;
64313;SDS011;50650;48.180;11.524;2023-04-28T04:47:22;1.88;;;1.50;;
64313;SDS011;50650;48.180;11.524;2023-04-28T04:49:50;3.90;;;1.85;;
64313;SDS011;50650;48.180;11.524;2023-04-28T04:52:17;2.50;;;1.65;;
64313;SDS011;50650;48.180;11.524;2023-04-28T04:54:44;3.67;;;1.80;;
64313;SDS011;50650;48.180;11.524;2023-04-28T04:57:10;3.30;;;1.70;;
64313;SDS011;50650;48.180;11.524;2023-04-28T04:59:37;3.42;;;1.55;;
64313;SDS011;50650;48.180;11.524;2023-04-28T05:02:03;3.03;;;1.83;;
64313;SDS011;50650;48.180;11.524;2023-04-28T05:04:30;3.22;;;1.98;;
64313;SDS011;50650;48.180;11.524;2023-04-28T05:06:57;3.17;;;1.98;;
64313;SDS011;50650;48.180;11.524;2023-04-28T05:09:24;4.07;;;1.90;;
64313;SDS011;50650;48.180;11.524;2023-04-28T05:11:50;3.03;;;1.90;;
64313;SDS011;50650;48.180;11.524;2023-04-28T05:14:17;3.25;;;1.70;;
64313;SDS011;50650;48.180;11.524;2023-04-28T05:16:43;9.35;;;2.13;;
64313;SDS011;50650;48.180;11.524;2023-04-28T05:19:10;4.25;;;1.90;;
64313;SDS011;50650;48.180;11.524;2023-04-28T05:21:36;4.07;;;2.00;;
64313;SDS011;50650;48.180;11.524;2023-04-28T05:24:04;2.75;;;2.00;;
64313;SDS011;50650;48.180;11.524;2023-04-28T05:26:31;6.22;;;2.08;;
64313;SDS011;50650;48.180;11.524;2023-04-28T05:28:57;3.55;;;2.00;;
64313;SDS011;50650;48.180;11.524;2023-04-28T05:31:24;3.60;;;1.77;;
64313;SDS011;50650;48.180;11.524;2023-04-28T05:33:50;2.80;;;1.88;;
64313;SDS011;50650;48.180;11.524;2023-04-28T05:36:17;3.83;;;2.17;;
64313;SDS011;50650;48.180;11.524;2023-04-28T05:38:43;4.68;;;2.05;;
64313;SDS011;50650;48.180;11.524;2023-04-28T05:41:11;5.50;;;2.05;;
64313;SDS011;50650;48.180;11.524;2023-04-28T05:43:38;2.80;;;1.83;;
64313;SDS011;50650;48.180;11.524;2023-04-28T05:46:04;2.67;;;1.80;;
64313;SDS011;50650;48.180;11.524;2023-04-28T05:48:30;3.53;;;1.58;;
64313;SDS011;50650;48.180;11.524;2023-04-28T05:50:57;3.25;;;1.98;;
64313;SDS011;50650;48.180;11.524;2023-04-28T05:53:23;2.78;;;1.85;;
64313;SDS011;50650;48.180;11.524;2023-04-28T05:55:50;2.22;;;1.80;;
64313;SDS011;50650;48.180;11.524;2023-04-28T05:58:18;2.78;;;1.70;;
64313;SDS011;50650;48.180;11.524;2023-04-28T06:00:45;3.05;;;1.63;;
64313;SDS011;50650;48.180;11.524;2023-04-28T06:03:11;2.83;;;1.70;;
64313;SDS011;50650;48.180;11.524;2023-04-28T06:05:39;3.67;;;1.63;;
64313;SDS011;50650;48.180;11.524;2023-04-28T06:08:06;4.32;;;1.60;;
64313;SDS011;50650;48.180;11.524;2023-04-28T06:10:32;3.75;;;1.30;;
64313;SDS011;50650;48.180;11.524;2023-04-28T06:12:59;2.10;;;1.50;;
64313;SDS011;50650;48.180;11.524;2023-04-28T06:15:27;1.20;;;1.00;;
64313;SDS011;50650;48.180;11.524;2023-04-28T06:17:54;2.75;;;1.50;;
64313;SDS011;50650;48.180;11.524;2023-04-28T06:20:20;2.70;;;1.20;;
64313;SDS011;50650;48.180;11.524;2023-04-28T06:22:47;3.72;;;1.48;;
64313;SDS011;50650;48.180;11.524;2023-04-28T06:25:13;3.80;;;1.15;;
64313;SDS011;50650;48.180;11.524;2023-04-28T06:27:40;3.78;;;1.20;;
64313;SDS011;50650;48.180;11.524;2023-04-28T06:30:07;2.17;;;1.27;;
64313;SDS011;50650;48.180;11.524;2023-04-28T06:32:35;1.70;;;1.27;;
64313;SDS011;50650;48.180;11.524;2023-04-28T06:35:01;1.75;;;1.05;;
64313;SDS011;50650;48.180;11.524;2023-04-28T06:37:28;2.50;;;1.20;;
64313;SDS011;50650;48.180;11.524;2023-04-28T06:39:54;2.15;;;1.17;;
64313;SDS011;50650;48.180;11.524;2023-04-28T06:42:21;1.85;;;1.10;;
64313;SDS011;50650;48.180;11.524;2023-04-28T06:44:47;2.72;;;1.25;;
64313;SDS011;50650;48.180;11.524;2023-04-28T06:47:14;1.92;;;1.30;;
64313;SDS011;50650;48.180;11.524;2023-04-28T06:49:41;1.75;;;1.08;;
64313;SDS011;50650;48.180;11.524;2023-04-28T06:52:09;4.22;;;1.50;;
64313;SDS011;50650;48.180;11.524;2023-04-28T06:54:36;2.10;;;1.38;;
64313;SDS011;50650;48.180;11.524;2023-04-28T06:57:02;4.75;;;1.45;;
64313;SDS011;50650;48.180;11.524;2023-04-28T06:59:29;2.47;;;1.05;;
64313;SDS011;50650;48.180;11.524;2023-04-28T07:01:56;4.00;;;1.05;;
64313;SDS011;50650;48.180;11.524;2023-04-28T07:04:22;2.75;;;1.20;;
64313;SDS011;50650;48.180;11.524;2023-04-28T07:06:50;2.97;;;1.13;;
64313;SDS011;50650;48.180;11.524;2023-04-28T07:09:17;2.72;;;0.98;;
64313;SDS011;50650;48.180;11.524;2023-04-28T07:11:44;1.75;;;0.90;;
64313;SDS011;50650;48.180;11.524;2023-04-28T07:14:10;1.25;;;0.80;;
64313;SDS011;50650;48.180;11.524;2023-04-28T07:16:37;3.42;;;0.90;;
64313;SDS011;50650;48.180;11.524;2023-04-28T07:19:03;4.72;;;0.80;;
64313;SDS011;50650;48.180;11.524;2023-04-28T07:21:30;2.08;;;0.80;;
64313;SDS011;50650;48.180;11.524;2023-04-28T07:23:58;1.48;;;0.90;;
64313;SDS011;50650;48.180;11.524;2023-04-28T07:26:24;2.67;;;0.75;;
64313;SDS011;50650;48.180;11.524;2023-04-28T07:28:50;2.53;;;0.68;;
64313;SDS011;50650;48.180;11.524;2023-04-28T07:31:17;1.52;;;0.60;;
64313;SDS011;50650;48.180;11.524;2023-04-28T07:33:44;1.05;;;0.57;;
64313;SDS011;50650;48.180;11.524;2023-04-28T07:36:10;1.23;;;0.80;;
64313;SDS011;50650;48.180;11.524;2023-04-28T07:38:37;5.50;;;2.22;;
64313;SDS011;50650;48.180;11.524;2023-04-28T07:41:05;2.08;;;0.75;;
64313;SDS011;50650;48.180;11.524;2023-04-28T07:43:31;1.25;;;0.80;;
64313;SDS011;50650;48.180;11.524;2023-04-28T07:45:58;0.90;;;0.60;;
64313;SDS011;50650;48.180;11.524;2023-04-28T07:48:24;5.18;;;0.80;;
64313;SDS011;50650;48.180;11.524;2023-04-28T07:50:51;5.25;;;0.82;;
64313;SDS011;50650;48.180;11.524;2023-04-28T07:53:17;2.05;;;0.70;;
64313;SDS011;50650;48.180;11.524;2023-04-28T07:55:44;2.78;;;0.80;;
64313;SDS011;50650;48.180;11.524;2023-04-28T07:58:12;1.48;;;0.70;;
64313;SDS011;50650;48.180;11.524;2023-04-28T08:00:38;1.45;;;0.70;;
64313;SDS011;50650;48.180;11.524;2023-04-28T08:03:05;2.15;;;1.00;;
64313;SDS011;50650;48.180;11.524;2023-04-28T08:05:31;1.92;;;1.00;;
64313;SDS011;50650;48.180;11.524;2023-04-28T08:07:58;2.53;;;0.80;;
64313;SDS011;50650;48.180;11.524;2023-04-28T08:10:24;2.67;;;1.08;;
64313;SDS011;50650;48.180;11.524;2023-04-28T08:12:51;1.75;;;0.90;;
64313;SDS011;50650;48.180;11.524;2023-04-28T08:15:19;2.88;;;1.27;;
64313;SDS011;50650;48.180;11.524;2023-04-28T08:17:46;1.30;;;0.88;;
64313;SDS011;50650;48.180;11.524;2023-04-28T08:20:12;1.95;;;1.00;;
64313;SDS011;50650;48.180;11.524;2023-04-28T08:22:39;1.88;;;1.10;;
64313;SDS011;50650;48.180;11.524;2023-04-28T08:25:06;1.38;;;1.00;;
64313;SDS011;50650;48.180;11.524;2023-04-28T08:27:33;1.60;;;1.05;;
64313;SDS011;50650;48.180;11.524;2023-04-28T08:30:02;5.40;;;1.17;;
64313;SDS011;50650;48.180;11.524;2023-04-28T08:32:30;1.38;;;0.90;;
64313;SDS011;50650;48.180;11.524;2023-04-28T08:34:57;1.90;;;0.82;;
64313;SDS011;50650;48.180;11.524;2023-04-28T08:37:24;2.60;;;1.10;;
64313;SDS011;50650;48.180;11.524;2023-04-28T08:39:51;2.17;;;1.20;;
64313;SDS011;50650;48.180;11.524;2023-04-28T08:44:54;2.03;;;0.88;;
64313;SDS011;50650;48.180;11.524;2023-04-28T08:47:23;1.10;;;0.80;;
64313;SDS011;50650;48.180;11.524;2023-04-28T08:49:51;2.20;;;1.02;;
64313;SDS011;50650;48.180;11.524;2023-04-28T08:52:19;3.00;;;0.95;;
64313;SDS011;50650;48.180;11.524;2023-04-28T08:54:46;2.00;;;1.00;;
64313;SDS011;50650;48.180;11.524;2023-04-28T08:57:13;2.80;;;1.20;;
64313;SDS011;50650;48.180;11.524;2023-04-28T08:59:40;6.63;;;1.02;;
64313;SDS011;50650;48.180;11.524;2023-04-28T09:02:06;2.17;;;0.80;;
64313;SDS011;50650;48.180;11.524;2023-04-28T09:04:33;1.58;;;0.93;;
64313;SDS011;50650;48.180;11.524;2023-04-28T09:07:01;3.30;;;0.98;;
64313;SDS011;50650;48.180;11.524;2023-04-28T09:09:28;2.20;;;1.00;;
64313;SDS011;50650;48.180;11.524;2023-04-28T09:11:55;2.78;;;1.05;;
64313;SDS011;50650;48.180;11.524;2023-04-28T09:14:23;1.38;;;0.75;;
64313;SDS011;50650;48.180;11.524;2023-04-28T09:16:50;3.47;;;1.13;;
64313;SDS011;50650;48.180;11.524;2023-04-28T09:19:17;6.30;;;0.80;;
64313;SDS011;50650;48.180;11.524;2023-04-28T09:21:51;2.13;;;0.70;;
64313;SDS011;50650;48.180;11.524;2023-04-28T09:24:26;1.30;;;0.70;;
64313;SDS011;50650;48.180;11.524;2023-04-28T09:26:53;0.77;;;0.50;;
64313;SDS011;50650;48.180;11.524;2023-04-28T09:29:20;1.73;;;0.65;;
64313;SDS011;50650;48.180;11.524;2023-04-28T09:31:46;1.20;;;0.70;;
64313;SDS011;50650;48.180;11.524;2023-04-28T09:34:13;1.80;;;0.80;;
64313;SDS011;50650;48.180;11.524;2023-04-28T09:36:39;1.10;;;0.80;;
64313;SDS011;50650;48.180;11.524;2023-04-28T09:39:06;2.20;;;0.95;;
64313;SDS011;50650;48.180;11.524;2023-04-28T09:41:37;3.15;;;0.77;;
64313;SDS011;50650;48.180;11.524;2023-04-28T09:44:11;1.45;;;0.73;;
64313;SDS011;50650;48.180;11.524;2023-04-28T09:46:38;0.93;;;0.50;;
64313;SDS011;50650;48.180;11.524;2023-04-28T09:49:05;2.17;;;0.68;;
64313;SDS011;50650;48.180;11.524;2023-04-28T09:51:32;1.10;;;0.77;;
64313;SDS011;50650;48.180;11.524;2023-04-28T09:53:59;1.40;;;0.60;;
64313;SDS011;50650;48.180;11.524;2023-04-28T09:56:26;2.08;;;0.80;;
64313;SDS011;50650;48.180;11.524;2023-04-28T09:58:54;1.52;;;0.82;;
64313;SDS011;50650;48.180;11.524;2023-04-28T10:01:23;2.80;;;0.80;;
64313;SDS011;50650;48.180;11.524;2023-04-28T10:03:50;4.28;;;1.05;;
64313;SDS011;50650;48.180;11.524;2023-04-28T10:06:18;1.35;;;0.63;;
64313;SDS011;50650;48.180;11.524;2023-04-28T10:08:44;2.50;;;0.70;;
64313;SDS011;50650;48.180;11.524;2023-04-28T10:11:12;1.77;;;0.65;;
64313;SDS011;50650;48.180;11.524;2023-04-28T10:13:40;1.25;;;0.70;;
64313;SDS011;50650;48.180;11.524;2023-04-28T10:16:08;1.30;;;0.70;;
64313;SDS011;50650;48.180;11.524;2023-04-28T10:18:35;2.33;;;0.90;;
64313;SDS011;50650;48.180;11.524;2023-04-28T10:21:03;2.17;;;0.90;;
64313;SDS011;50650;48.180;11.524;2023-04-28T10:23:45;1.52;;;0.70;;
64313;SDS011;50650;48.180;11.524;2023-04-28T10:26:26;1.98;;;0.68;;
64313;SDS011;50650;48.180;11.524;2023-04-28T10:29:01;2.40;;;0.90;;
64313;SDS011;50650;48.180;11.524;2023-04-28T10:31:29;1.88;;;0.80;;
64313;SDS011;50650;48.180;11.524;2023-04-28T10:33:56;1.67;;;0.75;;
64313;SDS011;50650;48.180;11.524;2023-04-28T10:36:47;3.00;;;0.80;;
64313;SDS011;50650;48.180;11.524;2023-04-28T10:39:14;3.45;;;0.88;;
64313;SDS011;50650;48.180;11.524;2023-04-28T10:41:41;1.55;;;0.70;;
64313;SDS011;50650;48.180;11.524;2023-04-28T10:47:07;0.85;;;0.60;;
64313;SDS011;50650;48.180;11.524;2023-04-28T10:52:48;1.58;;;0.55;;
64313;SDS011;50650;48.180;11.524;2023-04-28T10:55:28;1.48;;;0.60;;
64313;SDS011;50650;48.180;11.524;2023-04-28T11:03:51;6.03;;;1.08;;
64313;SDS011;50650;48.180;11.524;2023-04-28T11:06:24;1.33;;;0.70;;
64313;SDS011;50650;48.180;11.524;2023-04-28T11:08:52;2.17;;;0.70;;
64313;SDS011;50650;48.180;11.524;2023-04-28T11:11:21;2.47;;;0.68;;
64313;SDS011;50650;48.180;11.524;2023-04-28T11:13:50;1.67;;;0.70;;
64313;SDS011;50650;48.180;11.524;2023-04-28T11:16:19;1.20;;;0.55;;
64313;SDS011;50650;48.180;11.524;2023-04-28T11:18:51;2.53;;;0.93;;
64313;SDS011;50650;48.180;11.524;2023-04-28T11:21:19;1.65;;;0.73;;
64313;SDS011;50650;48.180;11.524;2023-04-28T11:23:46;2.78;;;0.98;;
64313;SDS011;50650;48.180;11.524;2023-04-28T11:26:13;1.83;;;0.60;;
64313;SDS011;50650;48.180;11.524;2023-04-28T11:28:46;2.58;;;0.75;;
64313;SDS011;50650;48.180;11.524;2023-04-28T11:31:13;1.00;;;0.60;;
64313;SDS011;50650;48.180;11.524;2023-04-28T11:33:43;1.65;;;0.50;;
64313;SDS011;50650;48.180;11.524;2023-04-28T11:36:22;1.50;;;0.63;;
64313;SDS011;50650;48.180;11.524;2023-04-28T11:38:49;1.25;;;0.77;;
64313;SDS011;50650;48.180;11.524;2023-04-28T11:41:16;3.35;;;0.82;;
64313;SDS011;50650;48.180;11.524;2023-04-28T11:43:42;1.35;;;0.55;;
64313;SDS011;50650;48.180;11.524;2023-04-28T11:46:08;4.75;;;0.90;;
64313;SDS011;50650;48.180;11.524;2023-04-28T11:48:35;1.67;;;0.75;;
64313;SDS011;50650;48.180;11.524;2023-04-28T11:51:02;5.72;;;0.80;;
64313;SDS011;50650;48.180;11.524;2023-04-28T11:53:40;0.77;;;0.43;;
64313;SDS011;50650;48.180;11.524;2023-04-28T11:56:07;2.38;;;0.93;;
64313;SDS011;50650;48.180;11.524;2023-04-28T11:58:34;1.23;;;0.90;;
64313;SDS011;50650;48.180;11.524;2023-04-28T12:01:07;1.25;;;0.80;;
64313;SDS011;50650;48.180;11.524;2023-04-28T12:03:41;2.97;;;0.85;;
64313;SDS011;50650;48.180;11.524;2023-04-28T12:06:08;1.80;;;0.80;;
64313;SDS011;50650;48.180;11.524;2023-04-28T12:08:34;0.70;;;0.50;;
64313;SDS011;50650;48.180;11.524;2023-04-28T12:11:08;3.15;;;0.95;;
64313;SDS011;50650;48.180;11.524;2023-04-28T12:13:35;1.48;;;0.73;;
64313;SDS011;50650;48.180;11.524;2023-04-28T12:16:02;2.35;;;0.93;;
64313;SDS011;50650;48.180;11.524;2023-04-28T12:18:30;3.13;;;0.82;;
64313;SDS011;50650;48.180;11.524;2023-04-28T12:20:56;1.45;;;0.88;;
64313;SDS011;50650;48.180;11.524;2023-04-28T12:23:29;1.48;;;1.00;;
64313;SDS011;50650;48.180;11.524;2023-04-28T12:25:56;2.45;;;1.00;;
64313;SDS011;50650;48.180;11.524;2023-04-28T12:28:34;1.15;;;0.90;;
64313;SDS011;50650;48.180;11.524;2023-04-28T12:31:02;3.55;;;1.15;;
64313;SDS011;50650;48.180;11.524;2023-04-28T12:33:29;6.40;;;1.10;;
64313;SDS011;50650;48.180;11.524;2023-04-28T12:35:58;3.35;;;1.00;;
64313;SDS011;50650;48.180;11.524;2023-04-28T12:38:24;3.28;;;1.00;;
64313;SDS011;50650;48.180;11.524;2023-04-28T12:40:52;0.98;;;0.70;;
64313;SDS011;50650;48.180;11.524;2023-04-28T12:43:18;1.38;;;0.90;;
64313;SDS011;50650;48.180;11.524;2023-04-28T12:45:48;2.85;;;1.13;;
64313;SDS011;50650;48.180;11.524;2023-04-28T12:48:15;1.60;;;0.88;;
64313;SDS011;50650;48.180;11.524;2023-04-28T12:50:41;4.57;;;0.80;;
64313;SDS011;50650;48.180;11.524;2023-04-28T12:53:07;1.08;;;0.75;;
64313;SDS011;50650;48.180;11.524;2023-04-28T12:55:35;2.50;;;0.95;;
64313;SDS011;50650;48.180;11.524;2023-04-28T12:58:03;1.88;;;0.70;;
64313;SDS011;50650;48.180;11.524;2023-04-28T13:00:29;1.15;;;0.80;;
64313;SDS011;50650;48.180;11.524;2023-04-28T13:02:57;1.58;;;1.00;;
64313;SDS011;50650;48.180;11.524;2023-04-28T13:05:23;2.53;;;1.00;;
64313;SDS011;50650;48.180;11.524;2023-04-28T13:07:50;2.72;;;1.00;;
64313;SDS011;50650;48.180;11.524;2023-04-28T13:10:16;1.15;;;0.88;;
64313;SDS011;50650;48.180;11.524;2023-04-28T13:12:45;2.25;;;1.08;;
64313;SDS011;50650;48.180;11.524;2023-04-28T13:15:11;1.88;;;0.80;;
64313;SDS011;50650;48.180;11.524;2023-04-28T13:17:38;1.50;;;0.88;;
64313;SDS011;50650;48.180;11.524;2023-04-28T13:20:06;0.93;;;0.70;;
64313;SDS011;50650;48.180;11.524;2023-04-28T13:22:34;1.23;;;0.65;;
64313;SDS011;50650;48.180;11.524;2023-04-28T13:25:01;2.20;;;0.60;;
64313;SDS011;50650;48.180;11.524;2023-04-28T13:27:27;1.33;;;0.80;;
64313;SDS011;50650;48.180;11.524;2023-04-28T13:29:54;0.70;;;0.50;;
64313;SDS011;50650;48.180;11.524;2023-04-28T13:32:23;0.57;;;0.50;;
64313;SDS011;50650;48.180;11.524;2023-04-28T13:34:49;0.70;;;0.45;;
64313;SDS011;50650;48.180;11.524;2023-04-28T13:37:17;0.65;;;0.50;;
64313;SDS011;50650;48.180;11.524;2023-04-28T13:39:43;1.10;;;0.60;;
64313;SDS011;50650;48.180;11.524;2023-04-28T13:42:10;1.65;;;0.90;;
64313;SDS011;50650;48.180;11.524;2023-04-28T13:44:37;0.68;;;0.50;;
64313;SDS011;50650;48.180;11.524;2023-04-28T13:47:03;0.90;;;0.40;;
64313;SDS011;50650;48.180;11.524;2023-04-28T13:49:33;0.80;;;0.50;;
64313;SDS011;50650;48.180;11.524;2023-04-28T13:52:01;0.50;;;0.40;;
64313;SDS011;50650;48.180;11.524;2023-04-28T13:54:29;2.67;;;0.60;;
64313;SDS011;50650;48.180;11.524;2023-04-28T13:56:55;1.08;;;0.60;;
64313;SDS011;50650;48.180;11.524;2023-04-28T13:59:22;1.20;;;0.50;;
64313;SDS011;50650;48.180;11.524;2023-04-28T14:01:48;0.52;;;0.40;;
64313;SDS011;50650;48.180;11.524;2023-04-28T14:04:15;0.85;;;0.55;;
64313;SDS011;50650;48.180;11.524;2023-04-28T14:06:42;0.77;;;0.43;;
64313;SDS011;50650;48.180;11.524;2023-04-28T14:09:08;0.68;;;0.50;;
64313;SDS011;50650;48.180;11.524;2023-04-28T14:11:36;2.83;;;0.57;;
64313;SDS011;50650;48.180;11.524;2023-04-28T14:14:03;0.52;;;0.40;;
64313;SDS011;50650;48.180;11.524;2023-04-28T14:16:29;0.60;;;0.40;;
64313;SDS011;50650;48.180;11.524;2023-04-28T14:18:56;0.35;;;0.30;;
64313;SDS011;50650;48.180;11.524;2023-04-28T14:21:23;0.70;;;0.50;;
64313;SDS011;50650;48.180;11.524;2023-04-28T14:23:50;0.43;;;0.40;;
64313;SDS011;50650;48.180;11.524;2023-04-28T14:26:17;1.77;;;0.40;;
64313;SDS011;50650;48.180;11.524;2023-04-28T14:28:45;1.17;;;0.70;;
64313;SDS011;50650;48.180;11.524;2023-04-28T14:31:11;0.70;;;0.50;;
64313;SDS011;50650;48.180;11.524;2023-04-28T14:33:38;0.40;;;0.30;;
64313;SDS011;50650;48.180;11.524;2023-04-28T14:36:05;3.33;;;1.17;;
64313;SDS011;50650;48.180;11.524;2023-04-28T14:38:31;5.00;;;1.95;;
64313;SDS011;50650;48.180;11.524;2023-04-28T14:40:57;2.72;;;1.20;;
64313;SDS011;50650;48.180;11.524;2023-04-28T14:43:24;15.27;;;2.83;;
64313;SDS011;50650;48.180;11.524;2023-04-28T14:45:52;2.03;;;1.02;;
64313;SDS011;50650;48.180;11.524;2023-04-28T14:48:18;4.03;;;1.10;;